sensor_id;sensor_type;location;lat;lon;timestamp;pressure;altitude;pressure_sealevel;temperature;humidity
56182;BME280;51963;46.052;14.544;2023-12-07T00:01:49;98185.00;;;0.82;100.00
56182;BME280;51963;46.052;14.544;2023-12-07T00:04:14;98197.00;;;0.95;100.00
56182;BME280;51963;46.052;14.544;2023-12-07T00:06:40;98189.84;;;0.87;100.00
56182;BME280;51963;46.052;14.544;2023-12-07T00:09:05;98186.38;;;0.77;100.00
56182;BME280;51963;46.052;14.544;2023-12-07T00:11:31;98199.13;;;0.80;100.00
56182;BME280;51963;46.052;14.544;2023-12-07T00:13:57;98194.63;;;0.82;100.00
56182;BME280;51963;46.052;14.544;2023-12-07T00:16:22;98201.47;;;0.83;100.00
56182;BME280;51963;46.052;14.544;2023-12-07T00:18:48;98185.50;;;0.66;100.00
56182;BME280;51963;46.052;14.544;2023-12-07T00:21:13;98207.56;;;0.72;100.00
56182;BME280;51963;46.052;14.544;2023-12-07T00:23:39;98208.66;;;0.69;100.00
56182;BME280;51963;46.052;14.544;2023-12-07T00:26:04;98211.25;;;0.69;100.00
56182;BME280;51963;46.052;14.544;2023-12-07T00:28:30;98192.16;;;0.59;100.00
56182;BME280;51963;46.052;14.544;2023-12-07T00:30:56;98209.63;;;0.68;100.00
56182;BME280;51963;46.052;14.544;2023-12-07T00:33:22;98213.34;;;0.76;100.00
56182;BME280;51963;46.052;14.544;2023-12-07T00:35:48;98202.78;;;0.98;100.00
56182;BME280;51963;46.052;14.544;2023-12-07T00:38:13;98208.69;;;1.10;100.00
56182;BME280;51963;46.052;14.544;2023-12-07T00:40:39;98200.00;;;0.90;100.00
56182;BME280;51963;46.052;14.544;2023-12-07T00:43:06;98219.44;;;1.17;100.00
56182;BME280;51963;46.052;14.544;2023-12-07T00:45:32;98208.84;;;1.09;100.00
56182;BME280;51963;46.052;14.544;2023-12-07T00:47:58;98193.16;;;0.89;100.00
56182;BME280;51963;46.052;14.544;2023-12-07T00:50:23;98228.72;;;1.10;100.00
56182;BME280;51963;46.052;14.544;2023-12-07T00:52:49;98231.69;;;1.05;100.00
56182;BME280;51963;46.052;14.544;2023-12-07T00:55:15;98227.16;;;0.97;100.00
56182;BME280;51963;46.052;14.544;2023-12-07T00:57:40;98232.84;;;1.12;100.00
56182;BME280;51963;46.052;14.544;2023-12-07T01:00:06;98223.25;;;1.13;100.00
56182;BME280;51963;46.052;14.544;2023-12-07T01:02:33;98207.03;;;0.99;100.00
56182;BME280;51963;46.052;14.544;2023-12-07T01:04:59;98236.19;;;1.24;100.00
56182;BME280;51963;46.052;14.544;2023-12-07T01:07:25;98231.75;;;1.15;100.00
56182;BME280;51963;46.052;14.544;2023-12-07T01:09:50;98227.34;;;1.06;100.00
56182;BME280;51963;46.052;14.544;2023-12-07T01:12:16;98225.25;;;0.99;100.00
56182;BME280;51963;46.052;14.544;2023-12-07T01:14:41;98231.31;;;1.10;100.00
56182;BME280;51963;46.052;14.544;2023-12-07T01:17:07;98233.84;;;1.21;100.00
56182;BME280;51963;46.052;14.544;2023-12-07T01:19:33;98229.88;;;1.27;100.00
56182;BME280;51963;46.052;14.544;2023-12-07T01:21:59;98230.19;;;1.34;100.00
56182;BME280;51963;46.052;14.544;2023-12-07T01:24:25;98230.97;;;1.24;100.00
56182;BME280;51963;46.052;14.544;2023-12-07T01:26:50;98212.22;;;0.99;100.00
56182;BME280;51963;46.052;14.544;2023-12-07T01:29:16;98220.03;;;0.99;100.00
56182;BME280;51963;46.052;14.544;2023-12-07T01:31:43;98232.81;;;1.02;100.00
56182;BME280;51963;46.052;14.544;2023-12-07T01:34:09;98234.72;;;1.00;100.00
56182;BME280;51963;46.052;14.544;2023-12-07T01:36:35;98228.91;;;0.87;100.00
56182;BME280;51963;46.052;14.544;2023-12-07T01:39:00;98210.44;;;0.69;100.00
56182;BME280;51963;46.052;14.544;2023-12-07T01:41:26;98211.19;;;0.81;100.00
56182;BME280;51963;46.052;14.544;2023-12-07T01:43:52;98228.97;;;0.76;100.00
56182;BME280;51963;46.052;14.544;2023-12-07T01:46:18;98240.34;;;0.75;100.00
56182;BME280;51963;46.052;14.544;2023-12-07T01:48:44;98230.84;;;0.95;100.00
56182;BME280;51963;46.052;14.544;2023-12-07T01:51:14;98218.56;;;0.76;100.00
56182;BME280;51963;46.052;14.544;2023-12-07T01:53:40;98233.59;;;0.93;100.00
56182;BME280;51963;46.052;14.544;2023-12-07T01:56:06;98215.34;;;0.62;100.00
56182;BME280;51963;46.052;14.544;2023-12-07T01:58:34;98249.09;;;0.73;100.00
56182;BME280;51963;46.052;14.544;2023-12-07T02:01:01;98242.78;;;0.76;100.00
56182;BME280;51963;46.052;14.544;2023-12-07T02:03:27;98243.94;;;0.83;100.00
56182;BME280;51963;46.052;14.544;2023-12-07T02:05:55;98232.09;;;0.69;100.00
56182;BME280;51963;46.052;14.544;2023-12-07T02:08:22;98211.84;;;0.52;100.00
56182;BME280;51963;46.052;14.544;2023-12-07T02:10:48;98253.59;;;0.71;100.00
56182;BME280;51963;46.052;14.544;2023-12-07T02:13:14;98240.50;;;0.62;100.00
56182;BME280;51963;46.052;14.544;2023-12-07T02:15:39;98217.50;;;0.57;100.00
56182;BME280;51963;46.052;14.544;2023-12-07T02:23:19;98232.09;;;0.69;100.00
56182;BME280;51963;46.052;14.544;2023-12-07T02:25:54;98255.50;;;0.69;100.00
56182;BME280;51963;46.052;14.544;2023-12-07T02:28:20;98255.09;;;0.74;100.00
56182;BME280;51963;46.052;14.544;2023-12-07T02:30:46;98248.13;;;0.75;100.00
56182;BME280;51963;46.052;14.544;2023-12-07T02:33:12;98249.09;;;0.73;100.00
56182;BME280;51963;46.052;14.544;2023-12-07T02:35:38;98247.69;;;0.69;100.00
56182;BME280;51963;46.052;14.544;2023-12-07T02:38:07;98249.59;;;0.67;100.00
56182;BME280;51963;46.052;14.544;2023-12-07T02:40:34;98250.22;;;0.81;100.00
56182;BME280;51963;46.052;14.544;2023-12-07T02:43:01;98255.88;;;0.86;100.00
56182;BME280;51963;46.052;14.544;2023-12-07T02:45:27;98262.91;;;0.95;100.00
56182;BME280;51963;46.052;14.544;2023-12-07T02:47:53;98263.53;;;1.09;100.00
56182;BME280;51963;46.052;14.544;2023-12-07T02:50:19;98265.69;;;1.04;100.00
56182;BME280;51963;46.052;14.544;2023-12-07T02:52:45;98256.16;;;0.93;100.00
56182;BME280;51963;46.052;14.544;2023-12-07T02:55:14;98256.16;;;0.93;100.00
56182;BME280;51963;46.052;14.544;2023-12-07T02:57:39;98262.03;;;0.85;100.00
56182;BME280;51963;46.052;14.544;2023-12-07T03:00:06;98270.78;;;0.84;100.00
56182;BME280;51963;46.052;14.544;2023-12-07T03:02:39;98275.16;;;0.83;100.00
56182;BME280;51963;46.052;14.544;2023-12-07T03:05:06;98254.41;;;0.93;100.00
56182;BME280;51963;46.052;14.544;2023-12-07T03:07:33;98275.53;;;1.00;100.00
56182;BME280;51963;46.052;14.544;2023-12-07T03:09:59;98258.66;;;0.94;100.00
56182;BME280;51963;46.052;14.544;2023-12-07T03:12:25;98281.91;;;0.86;100.00
56182;BME280;51963;46.052;14.544;2023-12-07T03:14:50;98278.72;;;0.82;100.00
56182;BME280;51963;46.052;14.544;2023-12-07T03:17:17;98281.25;;;0.94;100.00
56182;BME280;51963;46.052;14.544;2023-12-07T03:19:44;98284.81;;;1.14;100.00
56182;BME280;51963;46.052;14.544;2023-12-07T03:22:09;98267.41;;;0.93;100.00
56182;BME280;51963;46.052;14.544;2023-12-07T03:24:36;98289.31;;;1.12;100.00
56182;BME280;51963;46.052;14.544;2023-12-07T03:27:02;98287.66;;;1.11;100.00
56182;BME280;51963;46.052;14.544;2023-12-07T03:29:27;98286.00;;;1.10;100.00
56182;BME280;51963;46.052;14.544;2023-12-07T03:31:53;98297.31;;;1.20;100.00
56182;BME280;51963;46.052;14.544;2023-12-07T03:34:18;98274.47;;;1.02;100.00
56182;BME280;51963;46.052;14.544;2023-12-07T03:36:48;98304.75;;;1.04;100.00
56182;BME280;51963;46.052;14.544;2023-12-07T03:39:15;98302.91;;;0.94;100.00
56182;BME280;51963;46.052;14.544;2023-12-07T03:41:41;98299.44;;;0.84;100.00
56182;BME280;51963;46.052;14.544;2023-12-07T03:44:07;98307.34;;;0.82;100.00
56182;BME280;51963;46.052;14.544;2023-12-07T03:46:33;98304.22;;;0.88;100.00
56182;BME280;51963;46.052;14.544;2023-12-07T03:48:58;98290.53;;;0.86;100.00
56182;BME280;51963;46.052;14.544;2023-12-07T03:51:26;98294.91;;;0.86;100.00
56182;BME280;51963;46.052;14.544;2023-12-07T03:53:52;98319.03;;;0.88;100.00
56182;BME280;51963;46.052;14.544;2023-12-07T03:56:28;98303.25;;;0.80;100.00
56182;BME280;51963;46.052;14.544;2023-12-07T03:58:54;98317.66;;;0.84;100.00
56182;BME280;51963;46.052;14.544;2023-12-07T04:01:28;98319.41;;;0.83;100.00
56182;BME280;51963;46.052;14.544;2023-12-07T04:03:55;98321.38;;;1.12;100.00
56182;BME280;51963;46.052;14.544;2023-12-07T04:06:22;98304.94;;;1.12;100.00
56182;BME280;51963;46.052;14.544;2023-12-07T04:08:48;98332.38;;;1.16;100.00
56182;BME280;51963;46.052;14.544;2023-12-07T04:11:14;98313.97;;;1.08;100.00
56182;BME280;51963;46.052;14.544;2023-12-07T04:13:40;98327.44;;;1.23;100.00
56182;BME280;51963;46.052;14.544;2023-12-07T04:16:07;98320.47;;;1.23;100.00
56182;BME280;51963;46.052;14.544;2023-12-07T04:18:33;98316.91;;;1.24;100.00
56182;BME280;51963;46.052;14.544;2023-12-07T04:20:58;98328.28;;;1.23;100.00
56182;BME280;51963;46.052;14.544;2023-12-07T04:23:25;98346.34;;;1.15;100.00
56182;BME280;51963;46.052;14.544;2023-12-07T04:25:51;98336.59;;;1.38;100.00
56182;BME280;51963;46.052;14.544;2023-12-07T04:28:16;98339.25;;;1.48;100.00
56182;BME280;51963;46.052;14.544;2023-12-07T04:30:42;98325.88;;;1.31;100.00
56182;BME280;51963;46.052;14.544;2023-12-07T04:33:07;98333.06;;;1.18;100.00
56182;BME280;51963;46.052;14.544;2023-12-07T04:35:34;98348.03;;;1.26;100.00
56182;BME280;51963;46.052;14.544;2023-12-07T04:38:00;98342.63;;;1.70;100.00
56182;BME280;51963;46.052;14.544;2023-12-07T04:40:26;98344.19;;;1.51;100.00
56182;BME280;51963;46.052;14.544;2023-12-07T04:42:52;98319.53;;;1.24;100.00
56182;BME280;51963;46.052;14.544;2023-12-07T04:45:17;98347.22;;;1.25;100.00
56182;BME280;51963;46.052;14.544;2023-12-07T04:47:43;98343.34;;;1.20;100.00
56182;BME280;51963;46.052;14.544;2023-12-07T04:50:09;98354.44;;;1.22;100.00
56182;BME280;51963;46.052;14.544;2023-12-07T04:52:37;98323.69;;;1.06;100.00
56182;BME280;51963;46.052;14.544;2023-12-07T04:55:04;98341.66;;;1.09;100.00
56182;BME280;51963;46.052;14.544;2023-12-07T04:57:33;98353.97;;;1.07;100.00
56182;BME280;51963;46.052;14.544;2023-12-07T04:59:59;98374.28;;;1.13;100.00
56182;BME280;51963;46.052;14.544;2023-12-07T05:02:24;98365.53;;;1.14;100.00
56182;BME280;51963;46.052;14.544;2023-12-07T05:04:50;98365.63;;;1.34;100.00
56182;BME280;51963;46.052;14.544;2023-12-07T05:07:15;98368.44;;;1.42;100.00
56182;BME280;51963;46.052;14.544;2023-12-07T05:09:41;98344.53;;;1.37;100.00
56182;BME280;51963;46.052;14.544;2023-12-07T05:12:07;98381.97;;;1.67;100.00
56182;BME280;51963;46.052;14.544;2023-12-07T05:14:32;98376.41;;;1.50;100.00
56182;BME280;51963;46.052;14.544;2023-12-07T05:16:58;98380.69;;;1.30;100.00
56182;BME280;51963;46.052;14.544;2023-12-07T05:19:24;98374.53;;;1.10;100.00
56182;BME280;51963;46.052;14.544;2023-12-07T05:21:51;98368.19;;;1.02;100.00
56182;BME280;51963;46.052;14.544;2023-12-07T05:24:17;98383.06;;;1.12;100.00
56182;BME280;51963;46.052;14.544;2023-12-07T05:26:44;98377.84;;;1.12;100.00
56182;BME280;51963;46.052;14.544;2023-12-07T05:29:12;98383.81;;;1.24;100.00
56182;BME280;51963;46.052;14.544;2023-12-07T05:31:38;98389.66;;;1.16;100.00
56182;BME280;51963;46.052;14.544;2023-12-07T05:34:04;98393.47;;;1.12;100.00
56182;BME280;51963;46.052;14.544;2023-12-07T05:36:31;98389.91;;;1.13;100.00
56182;BME280;51963;46.052;14.544;2023-12-07T05:38:59;98371.34;;;1.06;100.00
56182;BME280;51963;46.052;14.544;2023-12-07T05:41:25;98393.19;;;1.36;100.00
56182;BME280;51963;46.052;14.544;2023-12-07T05:43:51;98388.19;;;1.23;100.00
56182;BME280;51963;46.052;14.544;2023-12-07T05:46:18;98387.88;;;1.38;100.00
56182;BME280;51963;46.052;14.544;2023-12-07T05:48:44;98389.78;;;1.36;100.00
56182;BME280;51963;46.052;14.544;2023-12-07T05:51:14;98400.59;;;1.62;100.00
56182;BME280;51963;46.052;14.544;2023-12-07T05:53:43;98397.38;;;1.70;100.00
56182;BME280;51963;46.052;14.544;2023-12-07T05:56:09;98388.75;;;1.48;100.00
56182;BME280;51963;46.052;14.544;2023-12-07T05:58:34;98391.34;;;1.48;100.00
56182;BME280;51963;46.052;14.544;2023-12-07T06:01:00;98400.06;;;1.58;100.00
56182;BME280;51963;46.052;14.544;2023-12-07T06:03:27;98406.25;;;1.67;100.00
56182;BME280;51963;46.052;14.544;2023-12-07T06:05:53;98410.28;;;1.50;100.00
56182;BME280;51963;46.052;14.544;2023-12-07T06:08:19;98389.84;;;1.24;100.00
56182;BME280;51963;46.052;14.544;2023-12-07T06:10:44;98403.19;;;1.31;100.00
56182;BME280;51963;46.052;14.544;2023-12-07T06:13:10;98405.28;;;1.37;100.00
56182;BME280;51963;46.052;14.544;2023-12-07T06:15:36;98415.44;;;1.40;100.00
56182;BME280;51963;46.052;14.544;2023-12-07T06:18:02;98423.75;;;1.55;100.00
56182;BME280;51963;46.052;14.544;2023-12-07T06:20:28;98409.97;;;1.65;100.00
56182;BME280;51963;46.052;14.544;2023-12-07T06:22:54;98426.00;;;1.39;100.00
56182;BME280;51963;46.052;14.544;2023-12-07T06:25:20;98424.97;;;1.30;100.00
56182;BME280;51963;46.052;14.544;2023-12-07T06:27:46;98419.72;;;1.20;100.00
56182;BME280;51963;46.052;14.544;2023-12-07T06:30:11;98425.16;;;1.17;100.00
56182;BME280;51963;46.052;14.544;2023-12-07T06:32:37;98431.34;;;1.16;100.00
56182;BME280;51963;46.052;14.544;2023-12-07T06:35:03;98428.13;;;1.12;100.00
56182;BME280;51963;46.052;14.544;2023-12-07T06:37:30;98432.28;;;1.15;100.00
56182;BME280;51963;46.052;14.544;2023-12-07T06:39:58;98430.38;;;1.17;100.00
56182;BME280;51963;46.052;14.544;2023-12-07T06:42:26;98437.88;;;1.53;100.00
56182;BME280;51963;46.052;14.544;2023-12-07T06:44:52;98440.09;;;1.36;100.00
56182;BME280;51963;46.052;14.544;2023-12-07T06:47:19;98445.19;;;1.38;100.00
56182;BME280;51963;46.052;14.544;2023-12-07T06:49:45;98424.22;;;1.18;100.00
56182;BME280;51963;46.052;14.544;2023-12-07T06:52:12;98446.81;;;1.17;100.00
56182;BME280;51963;46.052;14.544;2023-12-07T06:54:38;98435.38;;;1.09;100.00
56182;BME280;51963;46.052;14.544;2023-12-07T06:57:04;98444.09;;;1.19;100.00
56182;BME280;51963;46.052;14.544;2023-12-07T06:59:32;98457.56;;;1.24;100.00
56182;BME280;51963;46.052;14.544;2023-12-07T07:01:59;98454.53;;;1.19;100.00
56182;BME280;51963;46.052;14.544;2023-12-07T07:04:24;98451.06;;;1.19;100.00
56182;BME280;51963;46.052;14.544;2023-12-07T07:06:50;98463.69;;;1.35;100.00
56182;BME280;51963;46.052;14.544;2023-12-07T07:09:17;98459.09;;;1.27;100.00
56182;BME280;51963;46.052;14.544;2023-12-07T07:11:47;98456.41;;;1.38;100.00
56182;BME280;51963;46.052;14.544;2023-12-07T07:14:13;98456.13;;;1.31;100.00
56182;BME280;51963;46.052;14.544;2023-12-07T07:16:38;98449.25;;;1.30;100.00
56182;BME280;51963;46.052;14.544;2023-12-07T07:19:04;98444.16;;;1.50;100.00
56182;BME280;51963;46.052;14.544;2023-12-07T07:21:29;98440.69;;;1.40;100.00
56182;BME280;51963;46.052;14.544;2023-12-07T07:23:55;98462.72;;;1.57;100.00
56182;BME280;51963;46.052;14.544;2023-12-07T07:26:21;98453.13;;;1.57;100.00
56182;BME280;51963;46.052;14.544;2023-12-07T07:28:47;98442.34;;;1.41;100.00
56182;BME280;51963;46.052;14.544;2023-12-07T07:31:13;98448.00;;;1.46;100.00
56182;BME280;51963;46.052;14.544;2023-12-07T07:33:38;98453.25;;;1.35;100.00
56182;BME280;51963;46.052;14.544;2023-12-07T07:36:04;98463.09;;;1.52;100.00
56182;BME280;51963;46.052;14.544;2023-12-07T07:38:30;98458.16;;;1.49;100.00
56182;BME280;51963;46.052;14.544;2023-12-07T07:40:58;98461.81;;;1.46;100.00
56182;BME280;51963;46.052;14.544;2023-12-07T07:43:23;98459.56;;;1.53;100.00
56182;BME280;51963;46.052;14.544;2023-12-07T07:45:49;98415.69;;;1.58;100.00
56182;BME280;51963;46.052;14.544;2023-12-07T07:48:37;98451.94;;;1.93;100.00
56182;BME280;51963;46.052;14.544;2023-12-07T07:51:04;98477.13;;;1.82;100.00
56182;BME280;51963;46.052;14.544;2023-12-07T07:53:30;98472.44;;;1.76;100.00
56182;BME280;51963;46.052;14.544;2023-12-07T07:55:55;98446.19;;;1.68;100.00
56182;BME280;51963;46.052;14.544;2023-12-07T07:58:21;98456.19;;;1.63;100.00
56182;BME280;51963;46.052;14.544;2023-12-07T08:00:47;98455.28;;;1.52;100.00
56182;BME280;51963;46.052;14.544;2023-12-07T08:03:12;98487.06;;;1.67;100.00
56182;BME280;51963;46.052;14.544;2023-12-07T08:05:38;98487.78;;;1.48;100.00
56182;BME280;51963;46.052;14.544;2023-12-07T08:08:04;98479.75;;;1.40;100.00
56182;BME280;51963;46.052;14.544;2023-12-07T08:10:29;98461.13;;;1.44;100.00
56182;BME280;51963;46.052;14.544;2023-12-07T08:12:55;98481.78;;;1.57;100.00
56182;BME280;51963;46.052;14.544;2023-12-07T08:15:20;98484.59;;;1.66;100.00
56182;BME280;51963;46.052;14.544;2023-12-07T08:17:47;98473.28;;;1.55;100.00
56182;BME280;51963;46.052;14.544;2023-12-07T08:20:13;98484.84;;;1.63;100.00
56182;BME280;51963;46.052;14.544;2023-12-07T08:22:40;98482.25;;;1.63;100.00
56182;BME280;51963;46.052;14.544;2023-12-07T08:25:10;98496.72;;;1.76;100.00
56182;BME280;51963;46.052;14.544;2023-12-07T08:27:39;98499.84;;;1.70;100.00
56182;BME280;51963;46.052;14.544;2023-12-07T08:30:05;98499.97;;;1.69;100.00
56182;BME280;51963;46.052;14.544;2023-12-07T08:32:32;98487.13;;;1.77;100.00
56182;BME280;51963;46.052;14.544;2023-12-07T08:34:57;98495.66;;;1.79;100.00
56182;BME280;51963;46.052;14.544;2023-12-07T08:37:23;98484.63;;;1.75;100.00
56182;BME280;51963;46.052;14.544;2023-12-07T08:39:49;98496.34;;;1.81;100.00
56182;BME280;51963;46.052;14.544;2023-12-07T08:42:15;98483.31;;;1.60;100.00
56182;BME280;51963;46.052;14.544;2023-12-07T08:44:42;98487.25;;;1.75;100.00
56182;BME280;51963;46.052;14.544;2023-12-07T08:47:07;98457.81;;;1.64;100.00
56182;BME280;51963;46.052;14.544;2023-12-07T08:49:36;98513.56;;;1.94;100.00
56182;BME280;51963;46.052;14.544;2023-12-07T08:52:02;98515.03;;;1.86;100.00
56182;BME280;51963;46.052;14.544;2023-12-07T08:54:28;98516.94;;;1.84;100.00
56182;BME280;51963;46.052;14.544;2023-12-07T08:56:55;98518.91;;;1.92;100.00
56182;BME280;51963;46.052;14.544;2023-12-07T08:59:20;98512.22;;;1.99;100.00
56182;BME280;51963;46.052;14.544;2023-12-07T09:01:46;98522.88;;;2.17;100.00
56182;BME280;51963;46.052;14.544;2023-12-07T09:04:12;98509.16;;;2.15;100.00
56182;BME280;51963;46.052;14.544;2023-12-07T09:06:40;98512.69;;;1.83;100.00
56182;BME280;51963;46.052;14.544;2023-12-07T09:09:06;98486.19;;;1.78;100.00
56182;BME280;51963;46.052;14.544;2023-12-07T09:11:32;98512.00;;;2.43;100.00
56182;BME280;51963;46.052;14.544;2023-12-07T09:13:57;98520.75;;;2.32;100.00
56182;BME280;51963;46.052;14.544;2023-12-07T09:16:24;98498.88;;;2.24;100.00
56182;BME280;51963;46.052;14.544;2023-12-07T09:18:51;98512.09;;;2.32;100.00
56182;BME280;51963;46.052;14.544;2023-12-07T09:21:17;98528.81;;;2.60;100.00
56182;BME280;51963;46.052;14.544;2023-12-07T09:23:42;98529.75;;;2.49;100.00
56182;BME280;51963;46.052;14.544;2023-12-07T09:26:08;98534.09;;;2.39;100.00
56182;BME280;51963;46.052;14.544;2023-12-07T09:28:34;98531.88;;;2.34;100.00
56182;BME280;51963;46.052;14.544;2023-12-07T09:30:59;98530.47;;;2.30;100.00
56182;BME280;51963;46.052;14.544;2023-12-07T09:33:25;98525.50;;;2.17;100.00
56182;BME280;51963;46.052;14.544;2023-12-07T09:35:51;98529.94;;;2.27;100.00
56182;BME280;51963;46.052;14.544;2023-12-07T09:38:17;98528.72;;;2.31;100.00
56182;BME280;51963;46.052;14.544;2023-12-07T09:40:43;98522.91;;;2.27;100.00
56182;BME280;51963;46.052;14.544;2023-12-07T09:43:13;98509.06;;;2.37;100.00
56182;BME280;51963;46.052;14.544;2023-12-07T09:45:39;98522.44;;;2.43;100.00
56182;BME280;51963;46.052;14.544;2023-12-07T09:48:05;98516.59;;;2.61;100.00
56182;BME280;51963;46.052;14.544;2023-12-07T09:50:33;98514.50;;;2.55;100.00
56182;BME280;51963;46.052;14.544;2023-12-07T09:53:29;98506.91;;;2.42;100.00
56182;BME280;51963;46.052;14.544;2023-12-07T09:57:48;98523.16;;;2.55;100.00
56182;BME280;51963;46.052;14.544;2023-12-07T10:01:39;98509.28;;;2.55;100.00
56182;BME280;51963;46.052;14.544;2023-12-07T10:04:21;98518.72;;;2.87;100.00
56182;BME280;51963;46.052;14.544;2023-12-07T10:06:49;98516.16;;;2.56;100.00
56182;BME280;51963;46.052;14.544;2023-12-07T10:09:15;98483.91;;;2.67;100.00
56182;BME280;51963;46.052;14.544;2023-12-07T10:11:41;98492.44;;;2.69;100.00
56182;BME280;51963;46.052;14.544;2023-12-07T10:14:08;98505.13;;;2.93;100.00
56182;BME280;51963;46.052;14.544;2023-12-07T10:16:36;98508.97;;;3.08;100.00
56182;BME280;51963;46.052;14.544;2023-12-07T10:19:24;98497.72;;;3.18;100.00
56182;BME280;51963;46.052;14.544;2023-12-07T10:22:24;98497.84;;;3.06;100.00
56182;BME280;51963;46.052;14.544;2023-12-07T10:28:22;98514.78;;;3.32;100.00
56182;BME280;51963;46.052;14.544;2023-12-07T10:30:48;98499.50;;;3.17;100.00
56182;BME280;51963;46.052;14.544;2023-12-07T10:33:14;98511.75;;;3.27;100.00
56182;BME280;51963;46.052;14.544;2023-12-07T10:35:40;98500.59;;;3.15;100.00
56182;BME280;51963;46.052;14.544;2023-12-07T10:38:06;98496.03;;;2.97;100.00
56182;BME280;51963;46.052;14.544;2023-12-07T10:40:32;98488.09;;;2.99;100.00
56182;BME280;51963;46.052;14.544;2023-12-07T10:42:58;98491.38;;;3.30;100.00
56182;BME280;51963;46.052;14.544;2023-12-07T10:45:30;98482.84;;;3.28;100.00
56182;BME280;51963;46.052;14.544;2023-12-07T10:48:07;98486.44;;;3.47;100.00
56182;BME280;51963;46.052;14.544;2023-12-07T10:50:41;98487.47;;;3.74;100.00
56182;BME280;51963;46.052;14.544;2023-12-07T10:53:10;98487.19;;;3.77;100.00
56182;BME280;51963;46.052;14.544;2023-12-07T10:55:46;98482.94;;;3.76;100.00
56182;BME280;51963;46.052;14.544;2023-12-07T10:58:34;98487.75;;;3.80;100.00
56182;BME280;51963;46.052;14.544;2023-12-07T11:01:01;98493.72;;;3.53;100.00
56182;BME280;51963;46.052;14.544;2023-12-07T11:03:28;98493.84;;;3.42;100.00
56182;BME280;51963;46.052;14.544;2023-12-07T11:05:55;98481.44;;;3.63;100.00
56182;BME280;51963;46.052;14.544;2023-12-07T11:08:40;98472.38;;;3.48;100.00
56182;BME280;51963;46.052;14.544;2023-12-07T11:13:52;98494.47;;;3.83;100.00
56182;BME280;51963;46.052;14.544;2023-12-07T11:16:37;98492.03;;;3.81;100.00
56182;BME280;51963;46.052;14.544;2023-12-07T11:19:05;98495.13;;;4.05;100.00
56182;BME280;51963;46.052;14.544;2023-12-07T11:21:31;98486.00;;;4.09;100.00
56182;BME280;51963;46.052;14.544;2023-12-07T11:24:00;98486.75;;;4.01;100.00
56182;BME280;51963;46.052;14.544;2023-12-07T11:26:27;98483.94;;;4.13;100.00
56182;BME280;51963;46.052;14.544;2023-12-07T11:28:54;98493.75;;;4.01;100.00
56182;BME280;51963;46.052;14.544;2023-12-07T11:31:21;98489.59;;;4.08;100.00
56182;BME280;51963;46.052;14.544;2023-12-07T11:33:46;98469.06;;;4.13;100.00
56182;BME280;51963;46.052;14.544;2023-12-07T11:36:13;98489.22;;;4.31;100.00
56182;BME280;51963;46.052;14.544;2023-12-07T11:41:43;98498.06;;;4.30;100.00
56182;BME280;51963;46.052;14.544;2023-12-07T11:44:10;98498.06;;;4.30;100.00
56182;BME280;51963;46.052;14.544;2023-12-07T11:46:37;98499.09;;;4.09;100.00
56182;BME280;51963;46.052;14.544;2023-12-07T11:49:02;98503.91;;;4.14;100.00
56182;BME280;51963;46.052;14.544;2023-12-07T11:51:29;98495.53;;;4.38;100.00
56182;BME280;51963;46.052;14.544;2023-12-07T11:53:59;98488.72;;;4.17;100.00
56182;BME280;51963;46.052;14.544;2023-12-07T11:56:25;98490.34;;;3.90;100.00
56182;BME280;51963;46.052;14.544;2023-12-07T11:58:51;98479.81;;;3.62;100.00
56182;BME280;51963;46.052;14.544;2023-12-07T12:01:18;98484.25;;;3.42;100.00
56182;BME280;51963;46.052;14.544;2023-12-07T12:03:43;98497.22;;;3.91;100.00
56182;BME280;51963;46.052;14.544;2023-12-07T12:06:09;98492.63;;;3.06;100.00
56182;BME280;51963;46.052;14.544;2023-12-07T12:08:41;98490.31;;;3.13;100.00
56182;BME280;51963;46.052;14.544;2023-12-07T12:11:10;98472.00;;;3.23;100.00
56182;BME280;51963;46.052;14.544;2023-12-07T12:13:36;98487.25;;;3.57;100.00
56182;BME280;51963;46.052;14.544;2023-12-07T12:16:02;98473.34;;;3.47;100.00
56182;BME280;51963;46.052;14.544;2023-12-07T12:18:28;98470.22;;;3.33;100.00
56182;BME280;51963;46.052;14.544;2023-12-07T12:20:56;98477.63;;;3.28;100.00
56182;BME280;51963;46.052;14.544;2023-12-07T12:23:28;98450.41;;;3.21;100.00
56182;BME280;51963;46.052;14.544;2023-12-07T12:25:54;98498.53;;;3.48;100.00
56182;BME280;51963;46.052;14.544;2023-12-07T12:28:20;98505.13;;;3.52;100.00
56182;BME280;51963;46.052;14.544;2023-12-07T12:30:48;98498.69;;;3.36;100.00
56182;BME280;51963;46.052;14.544;2023-12-07T12:33:14;98489.19;;;3.26;100.00
56182;BME280;51963;46.052;14.544;2023-12-07T12:35:40;98480.25;;;3.08;100.00
56182;BME280;51963;46.052;14.544;2023-12-07T12:38:12;98493.72;;;2.94;100.00
56182;BME280;51963;46.052;14.544;2023-12-07T12:40:38;98495.78;;;2.90;100.00
56182;BME280;51963;46.052;14.544;2023-12-07T12:43:04;98499.59;;;2.76;100.00
56182;BME280;51963;46.052;14.544;2023-12-07T12:45:30;98489.16;;;2.76;100.00
56182;BME280;51963;46.052;14.544;2023-12-07T12:48:00;98495.34;;;2.95;100.00
56182;BME280;51963;46.052;14.544;2023-12-07T12:50:52;98503.72;;;2.79;100.00
56182;BME280;51963;46.052;14.544;2023-12-07T12:53:30;98499.34;;;2.99;100.00
56182;BME280;51963;46.052;14.544;2023-12-07T12:55:56;98502.38;;;3.04;100.00
56182;BME280;51963;46.052;14.544;2023-12-07T12:58:24;98493.59;;;3.05;100.00
56182;BME280;51963;46.052;14.544;2023-12-07T13:00:49;98492.22;;;3.21;100.00
56182;BME280;51963;46.052;14.544;2023-12-07T13:03:15;98493.31;;;3.48;100.00
56182;BME280;51963;46.052;14.544;2023-12-07T13:05:42;98506.34;;;3.67;100.00
56182;BME280;51963;46.052;14.544;2023-12-07T13:08:08;98502.09;;;3.07;100.00